sensor_id;sensor_type;location;lat;lon;timestamp;pressure;altitude;pressure_sealevel;temperature;humidity
58757;BME280;44527;47.460;19.016;2022-11-11T00:02:20;101780.38;;;7.78;100.00
58757;BME280;44527;47.460;19.016;2022-11-11T00:05:41;101780.41;;;7.48;100.00
58757;BME280;44527;47.460;19.016;2022-11-11T00:09:02;101789.66;;;7.58;100.00
58757;BME280;44527;47.460;19.016;2022-11-11T00:12:23;101787.72;;;7.65;100.00
58757;BME280;44527;47.460;19.016;2022-11-11T00:15:47;101787.59;;;7.70;100.00
58757;BME280;44527;47.460;19.016;2022-11-11T00:19:09;101784.44;;;7.58;100.00
58757;BME280;44527;47.460;19.016;2022-11-11T00:22:48;101797.75;;;7.79;100.00
58757;BME280;44527;47.460;19.016;2022-11-11T00:26:28;101805.53;;;7.52;100.00
58757;BME280;44527;47.460;19.016;2022-11-11T00:30:05;101805.28;;;7.32;100.00
58757;BME280;44527;47.460;19.016;2022-11-11T00:33:26;101800.06;;;7.32;100.00
58757;BME280;44527;47.460;19.016;2022-11-11T00:36:48;101801.97;;;7.25;100.00
58757;BME280;44527;47.460;19.016;2022-11-11T00:40:10;101802.44;;;7.40;100.00
58757;BME280;44527;47.460;19.016;2022-11-11T00:43:31;101797.06;;;7.14;100.00
58757;BME280;44527;47.460;19.016;2022-11-11T00:46:52;101800.25;;;7.26;100.00
58757;BME280;44527;47.460;19.016;2022-11-11T00:50:31;101801.97;;;7.25;100.00
58757;BME280;44527;47.460;19.016;2022-11-11T00:54:11;101804.62;;;7.24;100.00
58757;BME280;44527;47.460;19.016;2022-11-11T00:57:32;101805.47;;;7.26;100.00
58757;BME280;44527;47.460;19.016;2022-11-11T01:00:53;101807.25;;;7.24;100.00
58757;BME280;44527;47.460;19.016;2022-11-11T01:04:14;101821.25;;;7.21;100.00
58757;BME280;44527;47.460;19.016;2022-11-11T01:07:35;101809.31;;;7.12;100.00
58757;BME280;44527;47.460;19.016;2022-11-11T01:10:56;101809.97;;;7.19;100.00
58757;BME280;44527;47.460;19.016;2022-11-11T01:14:17;101793.00;;;7.04;100.00
58757;BME280;44527;47.460;19.016;2022-11-11T01:17:38;101799.09;;;7.05;100.00
58757;BME280;44527;47.460;19.016;2022-11-11T01:21:07;101794.56;;;7.10;100.00
58757;BME280;44527;47.460;19.016;2022-11-11T01:24:29;101798.66;;;7.20;100.00
58757;BME280;44527;47.460;19.016;2022-11-11T01:27:50;101797.34;;;7.04;100.00
58757;BME280;44527;47.460;19.016;2022-11-11T01:31:13;101808.19;;;6.90;100.00
58757;BME280;44527;47.460;19.016;2022-11-11T01:34:34;101802.72;;;6.99;100.00
58757;BME280;44527;47.460;19.016;2022-11-11T01:37:56;101810.56;;;6.98;100.00
58757;BME280;44527;47.460;19.016;2022-11-11T01:41:20;101813.75;;;6.78;100.00
58757;BME280;44527;47.460;19.016;2022-11-11T01:44:54;101816.37;;;6.76;100.00
58757;BME280;44527;47.460;19.016;2022-11-11T01:48:25;101817.03;;;6.84;100.00
58757;BME280;44527;47.460;19.016;2022-11-11T01:55:30;101824.19;;;6.78;100.00
58757;BME280;44527;47.460;19.016;2022-11-11T01:58:54;101808.19;;;6.90;100.00
58757;BME280;44527;47.460;19.016;2022-11-11T02:02:21;101805.19;;;6.38;100.00
58757;BME280;44527;47.460;19.016;2022-11-11T02:05:43;101811.62;;;6.59;100.00
58757;BME280;44527;47.460;19.016;2022-11-11T02:09:07;101800.19;;;6.63;100.00
58757;BME280;44527;47.460;19.016;2022-11-11T02:12:28;101800.19;;;6.63;100.00
58757;BME280;44527;47.460;19.016;2022-11-11T02:16:08;101812.97;;;6.74;100.00
58757;BME280;44527;47.460;19.016;2022-11-11T02:19:50;101813.50;;;6.87;100.00
58757;BME280;44527;47.460;19.016;2022-11-11T02:23:18;101814.16;;;6.95;100.00
58757;BME280;44527;47.460;19.016;2022-11-11T02:26:43;101817.91;;;6.85;100.00
58757;BME280;44527;47.460;19.016;2022-11-11T02:30:05;101815.38;;;6.82;100.00
58757;BME280;44527;47.460;19.016;2022-11-11T02:33:27;101829.41;;;6.78;100.00
58757;BME280;44527;47.460;19.016;2022-11-11T02:36:49;101816.06;;;6.88;100.00
58757;BME280;44527;47.460;19.016;2022-11-11T02:40:13;101819.47;;;6.92;100.00
58757;BME280;44527;47.460;19.016;2022-11-11T02:43:36;101827.28;;;6.92;100.00
58757;BME280;44527;47.460;19.016;2022-11-11T02:46:57;101839.47;;;6.91;100.00
58757;BME280;44527;47.460;19.016;2022-11-11T02:50:18;101835.41;;;6.81;100.00
58757;BME280;44527;47.460;19.016;2022-11-11T02:53:39;101837.00;;;6.87;100.00
58757;BME280;44527;47.460;19.016;2022-11-11T02:57:01;101845.16;;;6.73;100.00
58757;BME280;44527;47.460;19.016;2022-11-11T03:00:27;101845.09;;;6.76;100.00
58757;BME280;44527;47.460;19.016;2022-11-11T03:03:48;101841.00;;;6.66;100.00
58757;BME280;44527;47.460;19.016;2022-11-11T03:07:09;101848.78;;;6.33;100.00
58757;BME280;44527;47.460;19.016;2022-11-11T03:10:31;101862.16;;;6.55;100.00
58757;BME280;44527;47.460;19.016;2022-11-11T03:13:59;101863.31;;;6.43;100.00
58757;BME280;44527;47.460;19.016;2022-11-11T03:17:20;101874.63;;;6.42;100.00
58757;BME280;44527;47.460;19.016;2022-11-11T03:20:59;101869.56;;;6.36;100.00
58757;BME280;44527;47.460;19.016;2022-11-11T03:24:46;101870.97;;;6.14;100.00
58757;BME280;44527;47.460;19.016;2022-11-11T03:28:26;101866.91;;;6.02;100.00
58757;BME280;44527;47.460;19.016;2022-11-11T03:31:47;101876.25;;;6.12;100.00
58757;BME280;44527;47.460;19.016;2022-11-11T03:35:08;101880.63;;;6.10;100.00
58757;BME280;44527;47.460;19.016;2022-11-11T03:38:29;101883.09;;;6.15;100.00
58757;BME280;44527;47.460;19.016;2022-11-11T03:41:50;101889.47;;;6.03;100.00
58757;BME280;44527;47.460;19.016;2022-11-11T03:45:10;101881.22;;;5.83;100.00
58757;BME280;44527;47.460;19.016;2022-11-11T03:48:33;101882.91;;;5.85;100.00
58757;BME280;44527;47.460;19.016;2022-11-11T03:51:54;101888.06;;;5.87;100.00
58757;BME280;44527;47.460;19.016;2022-11-11T03:55:15;101891.34;;;5.55;100.00
58757;BME280;44527;47.460;19.016;2022-11-11T03:58:36;101898.69;;;5.78;100.00
58757;BME280;44527;47.460;19.016;2022-11-11T04:01:57;101893.34;;;5.84;100.00
58757;BME280;44527;47.460;19.016;2022-11-11T04:05:36;101891.63;;;5.83;100.00
58757;BME280;44527;47.460;19.016;2022-11-11T04:09:16;101900.16;;;5.89;100.00
58757;BME280;44527;47.460;19.016;2022-11-11T04:12:57;101895.41;;;5.69;100.00
58757;BME280;44527;47.460;19.016;2022-11-11T04:16:37;101895.81;;;5.90;100.00
58757;BME280;44527;47.460;19.016;2022-11-11T04:19:58;101907.53;;;6.11;100.00
58757;BME280;44527;47.460;19.016;2022-11-11T04:23:37;101901.16;;;6.24;100.00
58757;BME280;44527;47.460;19.016;2022-11-11T04:27:00;101904.00;;;6.13;100.00
58757;BME280;44527;47.460;19.016;2022-11-11T04:30:22;101904.28;;;6.01;100.00
58757;BME280;44527;47.460;19.016;2022-11-11T04:33:43;101910.06;;;6.15;100.00
58757;BME280;44527;47.460;19.016;2022-11-11T04:37:04;101907.25;;;6.25;100.00
58757;BME280;44527;47.460;19.016;2022-11-11T04:40:25;101914.16;;;6.26;100.00
58757;BME280;44527;47.460;19.016;2022-11-11T04:44:04;101918.16;;;6.03;100.00
58757;BME280;44527;47.460;19.016;2022-11-11T04:48:01;101916.72;;;5.87;100.00
58757;BME280;44527;47.460;19.016;2022-11-11T04:51:23;101919.56;;;5.76;100.00
58757;BME280;44527;47.460;19.016;2022-11-11T04:55:04;101917.81;;;5.76;100.00
58757;BME280;44527;47.460;19.016;2022-11-11T04:58:43;101919.00;;;6.04;100.00
58757;BME280;44527;47.460;19.016;2022-11-11T05:02:06;101929.88;;;6.22;100.00
58757;BME280;44527;47.460;19.016;2022-11-11T05:05:56;101926.28;;;6.27;100.00
58757;BME280;44527;47.460;19.016;2022-11-11T05:09:35;101925.56;;;6.21;100.00
58757;BME280;44527;47.460;19.016;2022-11-11T05:12:56;101925.50;;;6.25;100.00
58757;BME280;44527;47.460;19.016;2022-11-11T05:16:45;101926.13;;;6.34;100.00
58757;BME280;44527;47.460;19.016;2022-11-11T05:20:25;101935.66;;;6.35;100.00
58757;BME280;44527;47.460;19.016;2022-11-11T05:24:05;101937.59;;;6.27;100.00
58757;BME280;44527;47.460;19.016;2022-11-11T05:27:44;101949.03;;;6.21;100.00
58757;BME280;44527;47.460;19.016;2022-11-11T05:31:05;101928.69;;;6.37;100.00
58757;BME280;44527;47.460;19.016;2022-11-11T05:34:26;101937.50;;;6.30;100.00
58757;BME280;44527;47.460;19.016;2022-11-11T05:37:47;101933.75;;;6.42;100.00
58757;BME280;44527;47.460;19.016;2022-11-11T05:41:26;101939.34;;;6.27;100.00
58757;BME280;44527;47.460;19.016;2022-11-11T05:44:48;101943.62;;;6.31;100.00
58757;BME280;44527;47.460;19.016;2022-11-11T05:48:09;101946.81;;;6.42;100.00
58757;BME280;44527;47.460;19.016;2022-11-11T05:51:30;101953.72;;;6.44;100.00
58757;BME280;44527;47.460;19.016;2022-11-11T05:54:56;101956.31;;;6.46;100.00
58757;BME280;44527;47.460;19.016;2022-11-11T05:58:19;101957.03;;;6.51;100.00
58757;BME280;44527;47.460;19.016;2022-11-11T06:01:40;101958.91;;;6.46;100.00
58757;BME280;44527;47.460;19.016;2022-11-11T06:05:02;101965.81;;;6.47;100.00
58757;BME280;44527;47.460;19.016;2022-11-11T06:08:23;101962.25;;;6.51;100.00
58757;BME280;44527;47.460;19.016;2022-11-11T06:11:44;101959.06;;;6.38;100.00
58757;BME280;44527;47.460;19.016;2022-11-11T06:15:05;101965.31;;;6.31;100.00
58757;BME280;44527;47.460;19.016;2022-11-11T06:18:27;101973.00;;;6.37;100.00
58757;BME280;44527;47.460;19.016;2022-11-11T06:21:51;101983.31;;;6.42;100.00
58757;BME280;44527;47.460;19.016;2022-11-11T06:25:17;101986.69;;;6.47;100.00
58757;BME280;44527;47.460;19.016;2022-11-11T06:28:57;101983.22;;;6.47;100.00
58757;BME280;44527;47.460;19.016;2022-11-11T06:32:18;101987.25;;;6.60;100.00
58757;BME280;44527;47.460;19.016;2022-11-11T06:35:42;101999.25;;;6.67;100.00
58757;BME280;44527;47.460;19.016;2022-11-11T06:39:04;101997.56;;;6.66;100.00
58757;BME280;44527;47.460;19.016;2022-11-11T06:42:24;101994.94;;;6.67;100.00
58757;BME280;44527;47.460;19.016;2022-11-11T06:45:50;102006.09;;;6.73;100.00
58757;BME280;44527;47.460;19.016;2022-11-11T06:49:12;102002.41;;;6.83;100.00
58757;BME280;44527;47.460;19.016;2022-11-11T06:52:33;102000.56;;;6.86;100.00
58757;BME280;44527;47.460;19.016;2022-11-11T06:55:55;101998.50;;;6.99;100.00
58757;BME280;44527;47.460;19.016;2022-11-11T06:59:17;102006.50;;;6.93;100.00
58757;BME280;44527;47.460;19.016;2022-11-11T07:02:38;102013.13;;;7.06;100.00
58757;BME280;44527;47.460;19.016;2022-11-11T07:06:01;102020.69;;;7.17;100.00
58757;BME280;44527;47.460;19.016;2022-11-11T07:09:22;102031.56;;;7.34;100.00
58757;BME280;44527;47.460;19.016;2022-11-11T07:12:45;102041.66;;;7.48;100.00
58757;BME280;44527;47.460;19.016;2022-11-11T07:16:08;102045.97;;;7.49;100.00
58757;BME280;44527;47.460;19.016;2022-11-11T07:19:30;102040.44;;;7.62;100.00
58757;BME280;44527;47.460;19.016;2022-11-11T07:22:51;102056.59;;;7.76;100.00
58757;BME280;44527;47.460;19.016;2022-11-11T07:26:13;102063.22;;;7.89;100.00
58757;BME280;44527;47.460;19.016;2022-11-11T07:29:34;102068.06;;;8.03;100.00
58757;BME280;44527;47.460;19.016;2022-11-11T07:32:55;102067.41;;;8.26;100.00
58757;BME280;44527;47.460;19.016;2022-11-11T07:36:16;102073.25;;;8.04;100.00
58757;BME280;44527;47.460;19.016;2022-11-11T07:39:39;102072.91;;;8.17;100.00
58757;BME280;44527;47.460;19.016;2022-11-11T07:43:01;102075.25;;;8.26;100.00
58757;BME280;44527;47.460;19.016;2022-11-11T07:46:22;102081.97;;;8.36;100.00
58757;BME280;44527;47.460;19.016;2022-11-11T07:49:42;102089.25;;;8.56;100.00
58757;BME280;44527;47.460;19.016;2022-11-11T07:53:03;102088.50;;;8.81;100.00
58757;BME280;44527;47.460;19.016;2022-11-11T07:56:24;102093.63;;;8.84;100.00
58757;BME280;44527;47.460;19.016;2022-11-11T07:59:45;102088.28;;;8.88;100.00
58757;BME280;44527;47.460;19.016;2022-11-11T08:03:07;102087.22;;;8.94;100.00
58757;BME280;44527;47.460;19.016;2022-11-11T08:06:28;102094.69;;;9.06;100.00
58757;BME280;44527;47.460;19.016;2022-11-11T08:09:49;102092.34;;;9.25;98.55
58757;BME280;44527;47.460;19.016;2022-11-11T08:13:12;102103.31;;;9.36;98.72
58757;BME280;44527;47.460;19.016;2022-11-11T08:16:52;102108.53;;;9.63;95.38
58757;BME280;44527;47.460;19.016;2022-11-11T08:20:13;102099.84;;;9.87;94.00
58757;BME280;44527;47.460;19.016;2022-11-11T08:23:33;102098.59;;;9.98;93.69
58757;BME280;44527;47.460;19.016;2022-11-11T08:27:14;102094.25;;;9.97;94.05
58757;BME280;44527;47.460;19.016;2022-11-11T08:30:34;102096.12;;;10.18;93.43
58757;BME280;44527;47.460;19.016;2022-11-11T08:33:55;102100.81;;;10.33;91.61
58757;BME280;44527;47.460;19.016;2022-11-11T08:37:16;102115.22;;;10.22;92.61
58757;BME280;44527;47.460;19.016;2022-11-11T08:40:37;102100.09;;;10.30;91.73
58757;BME280;44527;47.460;19.016;2022-11-11T08:43:59;102107.63;;;10.63;90.56
58757;BME280;44527;47.460;19.016;2022-11-11T08:47:21;102094.53;;;10.61;90.61
58757;BME280;44527;47.460;19.016;2022-11-11T08:50:44;102095.69;;;10.77;90.53
58757;BME280;44527;47.460;19.016;2022-11-11T08:54:05;102086.31;;;10.92;88.40
58757;BME280;44527;47.460;19.016;2022-11-11T08:57:26;102087.34;;;11.10;87.25
58757;BME280;44527;47.460;19.016;2022-11-11T09:00:47;102103.00;;;11.13;88.98
58757;BME280;44527;47.460;19.016;2022-11-11T09:04:07;102104.13;;;11.50;87.56
58757;BME280;44527;47.460;19.016;2022-11-11T09:07:48;102107.94;;;11.84;85.40
58757;BME280;44527;47.460;19.016;2022-11-11T09:11:09;102108.69;;;11.87;85.28
58757;BME280;44527;47.460;19.016;2022-11-11T09:14:30;102100.25;;;12.00;83.53
58757;BME280;44527;47.460;19.016;2022-11-11T09:17:51;102109.50;;;12.29;82.58
58757;BME280;44527;47.460;19.016;2022-11-11T09:21:12;102112.16;;;12.48;81.69
58757;BME280;44527;47.460;19.016;2022-11-11T09:24:33;102107.59;;;12.51;81.25
58757;BME280;44527;47.460;19.016;2022-11-11T09:27:55;102104.53;;;12.41;81.85
58757;BME280;44527;47.460;19.016;2022-11-11T09:31:16;102101.13;;;12.77;78.98
58757;BME280;44527;47.460;19.016;2022-11-11T09:34:57;102099.41;;;12.76;80.01
58757;BME280;44527;47.460;19.016;2022-11-11T09:38:26;102098.41;;;12.79;79.78
58757;BME280;44527;47.460;19.016;2022-11-11T09:42:16;102098.00;;;12.69;80.23
58757;BME280;44527;47.460;19.016;2022-11-11T09:45:50;102086.19;;;12.59;79.83
58757;BME280;44527;47.460;19.016;2022-11-11T09:49:27;102086.75;;;12.28;81.32
58757;BME280;44527;47.460;19.016;2022-11-11T09:53:07;102095.06;;;12.18;81.62
58757;BME280;44527;47.460;19.016;2022-11-11T09:56:31;102095.94;;;11.99;83.16
58757;BME280;44527;47.460;19.016;2022-11-11T09:59:54;102096.66;;;12.02;84.62
58757;BME280;44527;47.460;19.016;2022-11-11T10:03:21;102089.84;;;12.17;84.68
58757;BME280;44527;47.460;19.016;2022-11-11T10:06:44;102095.84;;;12.39;83.38
58757;BME280;44527;47.460;19.016;2022-11-11T10:10:15;102090.09;;;12.50;83.77
58757;BME280;44527;47.460;19.016;2022-11-11T10:13:37;102091.84;;;12.87;81.97
58757;BME280;44527;47.460;19.016;2022-11-11T10:20:48;102080.41;;;13.42;80.51
58757;BME280;44527;47.460;19.016;2022-11-11T10:24:16;102076.38;;;13.52;76.62
58757;BME280;44527;47.460;19.016;2022-11-11T10:27:42;102081.03;;;13.65;76.07
58757;BME280;44527;47.460;19.016;2022-11-11T10:31:09;102061.25;;;13.56;75.54
58757;BME280;44527;47.460;19.016;2022-11-11T10:34:32;102060.09;;;13.44;75.87
58757;BME280;44527;47.460;19.016;2022-11-11T10:41:41;102061.91;;;13.07;80.47
58757;BME280;44527;47.460;19.016;2022-11-11T10:49:17;102049.81;;;13.21;79.50
58757;BME280;44527;47.460;19.016;2022-11-11T10:52:51;102061.63;;;13.48;77.91
58757;BME280;44527;47.460;19.016;2022-11-11T10:56:27;102066.66;;;13.88;76.18
58757;BME280;44527;47.460;19.016;2022-11-11T11:03:31;102057.00;;;14.20;73.97
58757;BME280;44527;47.460;19.016;2022-11-11T11:06:54;102052.16;;;14.44;73.86
58757;BME280;44527;47.460;19.016;2022-11-11T11:10:22;102039.25;;;14.71;72.36
58757;BME280;44527;47.460;19.016;2022-11-11T11:13:50;102037.91;;;14.64;71.86
58757;BME280;44527;47.460;19.016;2022-11-11T11:17:21;102026.66;;;14.60;71.00
58757;BME280;44527;47.460;19.016;2022-11-11T11:20:55;102019.91;;;14.55;73.16
58757;BME280;44527;47.460;19.016;2022-11-11T11:24:25;102019.78;;;14.40;75.14
58757;BME280;44527;47.460;19.016;2022-11-11T11:27:49;102018.09;;;14.23;76.15
58757;BME280;44527;47.460;19.016;2022-11-11T11:31:10;102011.34;;;14.18;77.20
58757;BME280;44527;47.460;19.016;2022-11-11T11:34:50;102013.72;;;14.07;78.00
58757;BME280;44527;47.460;19.016;2022-11-11T11:38:11;102012.03;;;14.21;77.00
58757;BME280;44527;47.460;19.016;2022-11-11T11:41:41;102001.97;;;14.28;73.68
58757;BME280;44527;47.460;19.016;2022-11-11T11:45:19;102006.75;;;14.37;71.83
58757;BME280;44527;47.460;19.016;2022-11-11T11:56:25;102019.34;;;14.16;69.59
58757;BME280;44527;47.460;19.016;2022-11-11T12:00:02;102021.31;;;14.13;71.58
58757;BME280;44527;47.460;19.016;2022-11-11T12:08:09;102031.81;;;14.14;76.12
58757;BME280;44527;47.460;19.016;2022-11-11T12:11:53;102027.41;;;13.97;77.62
58757;BME280;44527;47.460;19.016;2022-11-11T12:15:36;102035.34;;;13.97;76.66
58757;BME280;44527;47.460;19.016;2022-11-11T12:30:37;102029.22;;;13.97;74.56
58757;BME280;44527;47.460;19.016;2022-11-11T12:34:20;102029.84;;;13.85;72.93
58757;BME280;44527;47.460;19.016;2022-11-11T12:45:11;102041.88;;;13.90;72.50
58757;BME280;44527;47.460;19.016;2022-11-11T12:48:53;102035.50;;;13.94;67.34
58757;BME280;44527;47.460;19.016;2022-11-11T13:03:34;102033.72;;;14.11;64.90
58757;BME280;44527;47.460;19.016;2022-11-11T13:07:28;102027.03;;;14.05;64.01
58757;BME280;44527;47.460;19.016;2022-11-11T13:14:39;102015.00;;;14.15;65.29
58757;BME280;44527;47.460;19.016;2022-11-11T13:18:09;102001.62;;;14.34;65.09
58757;BME280;44527;47.460;19.016;2022-11-11T13:21:49;101994.41;;;14.54;65.74
58757;BME280;44527;47.460;19.016;2022-11-11T13:25:17;102004.28;;;14.50;64.91
58757;BME280;44527;47.460;19.016;2022-11-11T13:28:47;102000.63;;;14.21;65.75
58757;BME280;44527;47.460;19.016;2022-11-11T13:32:12;102004.69;;;14.11;65.52
58757;BME280;44527;47.460;19.016;2022-11-11T13:36:02;102013.37;;;13.97;66.78
58757;BME280;44527;47.460;19.016;2022-11-11T13:39:28;102018.66;;;13.97;66.96
58757;BME280;44527;47.460;19.016;2022-11-11T13:42:51;102014.25;;;13.80;67.03
58757;BME280;44527;47.460;19.016;2022-11-11T13:49:59;101999.37;;;13.62;66.81
58757;BME280;44527;47.460;19.016;2022-11-11T13:53:29;101991.00;;;13.71;68.56
58757;BME280;44527;47.460;19.016;2022-11-11T13:56:52;102003.75;;;13.63;68.71
58757;BME280;44527;47.460;19.016;2022-11-11T14:07:06;102002.91;;;13.45;70.87
58757;BME280;44527;47.460;19.016;2022-11-11T14:13:47;102004.34;;;13.35;71.03
58757;BME280;44527;47.460;19.016;2022-11-11T14:17:13;101998.34;;;13.31;71.90
58757;BME280;44527;47.460;19.016;2022-11-11T14:20:38;101997.88;;;13.23;72.32
58757;BME280;44527;47.460;19.016;2022-11-11T14:24:00;101999.66;;;13.22;71.58
58757;BME280;44527;47.460;19.016;2022-11-11T14:27:26;101997.69;;;13.08;72.11
58757;BME280;44527;47.460;19.016;2022-11-11T14:30:47;101983.66;;;12.91;72.41
58757;BME280;44527;47.460;19.016;2022-11-11T14:45:02;101974.84;;;12.55;74.41
58757;BME280;44527;47.460;19.016;2022-11-11T14:55:55;101970.62;;;12.34;77.67
58757;BME280;44527;47.460;19.016;2022-11-11T14:59:16;101973.19;;;12.16;78.71
58757;BME280;44527;47.460;19.016;2022-11-11T15:03:06;101973.06;;;12.01;79.23
58757;BME280;44527;47.460;19.016;2022-11-11T15:06:43;101978.06;;;11.86;81.07
58757;BME280;44527;47.460;19.016;2022-11-11T15:10:29;101971.91;;;11.67;82.57
58757;BME280;44527;47.460;19.016;2022-11-11T15:24:32;101979.37;;;10.96;88.02
58757;BME280;44527;47.460;19.016;2022-11-11T15:32:04;101987.06;;;10.78;90.18
58757;BME280;44527;47.460;19.016;2022-11-11T15:35:32;101976.94;;;10.69;90.86
58757;BME280;44527;47.460;19.016;2022-11-11T15:38:56;101972.22;;;10.55;91.86
58757;BME280;44527;47.460;19.016;2022-11-11T15:42:37;101978.03;;;10.42;92.79
58757;BME280;44527;47.460;19.016;2022-11-11T15:46:03;101976.88;;;10.27;93.53
58757;BME280;44527;47.460;19.016;2022-11-11T15:49:45;101984.22;;;10.17;94.26
58757;BME280;44527;47.460;19.016;2022-11-11T15:53:11;101982.09;;;10.03;96.12
58757;BME280;44527;47.460;19.016;2022-11-11T15:56:32;101984.66;;;10.05;96.26
58757;BME280;44527;47.460;19.016;2022-11-11T16:00:01;101986.69;;;9.98;96.96
58757;BME280;44527;47.460;19.016;2022-11-11T16:03:41;101985.34;;;9.86;97.32
58757;BME280;44527;47.460;19.016;2022-11-11T16:07:03;101985.28;;;9.88;97.71
58757;BME280;44527;47.460;19.016;2022-11-11T16:10:30;101999.87;;;9.72;98.30
58757;BME280;44527;47.460;19.016;2022-11-11T16:13:59;101995.81;;;9.63;98.46
58757;BME280;44527;47.460;19.016;2022-11-11T16:17:30;102010.19;;;9.51;100.00
58757;BME280;44527;47.460;19.016;2022-11-11T16:21:00;102009.47;;;9.48;100.00
58757;BME280;44527;47.460;19.016;2022-11-11T16:24:29;102002.72;;;9.40;100.00
58757;BME280;44527;47.460;19.016;2022-11-11T16:27:51;101999.56;;;9.31;100.00
58757;BME280;44527;47.460;19.016;2022-11-11T16:35:19;101999.50;;;9.32;100.00
58757;BME280;44527;47.460;19.016;2022-11-11T16:38:42;101998.06;;;9.24;100.00
58757;BME280;44527;47.460;19.016;2022-11-11T16:45:45;101999.13;;;9.18;100.00
58757;BME280;44527;47.460;19.016;2022-11-11T16:53:01;101987.88;;;9.14;100.00
58757;BME280;44527;47.460;19.016;2022-11-11T16:56:28;101984.53;;;9.11;100.00
58757;BME280;44527;47.460;19.016;2022-11-11T16:59:53;101984.41;;;9.14;100.00
58757;BME280;44527;47.460;19.016;2022-11-11T17:03:19;101984.72;;;9.05;100.00
58757;BME280;44527;47.460;19.016;2022-11-11T17:10:17;101991.66;;;9.06;100.00
58757;BME280;44527;47.460;19.016;2022-11-11T17:13:38;101998.63;;;9.07;100.00
58757;BME280;44527;47.460;19.016;2022-11-11T17:17:06;102000.50;;;9.03;100.00
58757;BME280;44527;47.460;19.016;2022-11-11T17:20:28;101995.69;;;8.91;100.00
58757;BME280;44527;47.460;19.016;2022-11-11T17:23:48;101989.72;;;8.86;100.00
58757;BME280;44527;47.460;19.016;2022-11-11T17:27:09;101981.50;;;8.70;100.00
58757;BME280;44527;47.460;19.016;2022-11-11T17:30:30;101976.28;;;8.70;100.00
58757;BME280;44527;47.460;19.016;2022-11-11T17:33:51;101976.66;;;8.84;100.00
58757;BME280;44527;47.460;19.016;2022-11-11T17:37:11;101962.63;;;8.87;100.00
58757;BME280;44527;47.460;19.016;2022-11-11T17:40:32;101962.69;;;8.85;100.00
58757;BME280;44527;47.460;19.016;2022-11-11T17:43:53;101970.22;;;8.68;100.00
58757;BME280;44527;47.460;19.016;2022-11-11T17:47:14;101976.19;;;8.73;100.00
58757;BME280;44527;47.460;19.016;2022-11-11T17:50:36;101975.66;;;8.62;100.00
58757;BME280;44527;47.460;19.016;2022-11-11T17:53:57;101966.75;;;8.67;100.00
58757;BME280;44527;47.460;19.016;2022-11-11T17:57:19;101957.69;;;8.78;100.00
58757;BME280;44527;47.460;19.016;2022-11-11T18:00:40;101959.31;;;8.82;100.00
58757;BME280;44527;47.460;19.016;2022-11-11T18:04:00;101949.84;;;8.78;100.00
58757;BME280;44527;47.460;19.016;2022-11-11T18:07:23;101944.88;;;8.70;100.00
58757;BME280;44527;47.460;19.016;2022-11-11T18:10:44;101954.12;;;8.80;100.00
58757;BME280;44527;47.460;19.016;2022-11-11T18:14:05;101956.72;;;8.80;100.00
58757;BME280;44527;47.460;19.016;2022-11-11T18:17:26;101947.12;;;8.81;100.00
58757;BME280;44527;47.460;19.016;2022-11-11T18:20:47;101932.13;;;8.86;100.00
58757;BME280;44527;47.460;19.016;2022-11-11T18:24:09;101939.97;;;8.86;100.00
58757;BME280;44527;47.460;19.016;2022-11-11T18:27:30;101941.44;;;8.94;100.00
58757;BME280;44527;47.460;19.016;2022-11-11T18:30:50;101936.06;;;8.72;100.00
58757;BME280;44527;47.460;19.016;2022-11-11T18:34:11;101931.37;;;8.82;100.00
58757;BME280;44527;47.460;19.016;2022-11-11T18:37:32;101935.84;;;8.79;100.00
58757;BME280;44527;47.460;19.016;2022-11-11T18:41:21;101943.09;;;8.97;100.00
58757;BME280;44527;47.460;19.016;2022-11-11T18:44:41;101946.06;;;9.11;100.00
58757;BME280;44527;47.460;19.016;2022-11-11T18:48:01;101943.22;;;9.19;100.00
58757;BME280;44527;47.460;19.016;2022-11-11T18:51:23;101930.00;;;9.22;100.00
58757;BME280;44527;47.460;19.016;2022-11-11T18:54:43;101935.69;;;9.33;100.00
58757;BME280;44527;47.460;19.016;2022-11-11T18:58:04;101925.88;;;9.40;100.00
58757;BME280;44527;47.460;19.016;2022-11-11T19:01:27;101923.41;;;9.35;100.00
58757;BME280;44527;47.460;19.016;2022-11-11T19:04:48;101927.72;;;9.36;100.00
58757;BME280;44527;47.460;19.016;2022-11-11T19:08:08;101933.56;;;9.44;100.00
58757;BME280;44527;47.460;19.016;2022-11-11T19:11:29;101929.28;;;9.42;100.00
58757;BME280;44527;47.460;19.016;2022-11-11T19:14:53;101930.34;;;9.36;100.00
58757;BME280;44527;47.460;19.016;2022-11-11T19:18:13;101930.56;;;9.30;100.00
58757;BME280;44527;47.460;19.016;2022-11-11T19:21:35;101922.28;;;9.42;100.00
58757;BME280;44527;47.460;19.016;2022-11-11T19:24:56;101923.69;;;9.28;100.00
58757;BME280;44527;47.460;19.016;2022-11-11T19:28:17;101931.91;;;9.17;100.00
58757;BME280;44527;47.460;19.016;2022-11-11T19:31:38;101924.25;;;9.36;100.00
58757;BME280;44527;47.460;19.016;2022-11-11T19:34:58;101931.72;;;9.23;100.00
58757;BME280;44527;47.460;19.016;2022-11-11T19:38:19;101937.16;;;9.17;100.00
58757;BME280;44527;47.460;19.016;2022-11-11T19:41:40;101934.00;;;9.07;100.00
58757;BME280;44527;47.460;19.016;2022-11-11T19:45:01;101942.09;;;9.26;100.00
58757;BME280;44527;47.460;19.016;2022-11-11T19:48:22;101936.41;;;9.13;100.00
58757;BME280;44527;47.460;19.016;2022-11-11T19:51:43;101928.16;;;9.24;100.00